Terminal Aerodrome Forecast
Issued by NWS Brownsville, TX

Home | Current Version | Previous Version | Text Only | Print | Product List | Glossary On
Versions: 1 2 3 4 5 6 7 8 9 10 11 12 13 14
000
FTUS44 KBRO 190536
TAFHRL
TAF
KHRL 190536Z 1906/2006 VRB03KT P6SM SKC
      TEMPO 1910/1914 5SM BR
     FM191400 10007KT P6SM FEW050 SCT250
     FM192000 10012KT P6SM SCT050 SCT250
     FM200100 10003KT P6SM SKC=

USA.gov is the U.S. government's official web portal to all federal, state and local government web resources and services.